Zim Luanda — 9HA2029 — position and weather

sailwx.info

Track history (hours):
 
Tides and Currents Weather Stations Pressure Air Temp Water Temp Dewpoint Dewpoint Depression Visibility Wind Speed Wind Dir Waves Ship Positions

Zim Luanda

Last reported at 2014-Dec-16 04:24 UTC. Time now 2014-Dec-22 19:53 UTC.
Position N 35°58' W 005°36'.

Length 260 m; draft 11.6 m.

Type: Ship (hazmat cat A). MMSI: 249830000.

Date/timePositionNaut miles runAvg speedWind from/ knotsBaromVisibWave heightAir tempDewpointWater temp
2014-Dec-16 04:24N 35°58' W 005°36'1113.2
2014-Dec-16 03:32N 36°01' W 005°23'24114.0
2014-Dec-15 10:16N 37°28' W 000°42'1215.1
2014-Dec-15 09:28N 37°37' W 000°31'1415.4
2014-Dec-15 08:33N 37°49' W 000°22'1614.9
2014-Dec-15 07:27N 38°02' W 000°10'8212.0
2014-Dec-15 00:33N 39°25' W 000°16'3 3.1
2014-Dec-14 23:29N 39°27' W 000°19'0 0.0
2014-Dec-14 22:32N 39°27' W 000°19'0 0.0
2014-Dec-14 21:32N 39°27' W 000°19'0 0.0
2014-Dec-14 20:32N 39°27' W 000°19'0 0.0
2014-Dec-14 19:32N 39°27' W 000°19'0 0.0
2014-Dec-14 18:32N 39°27' W 000°19'0 0.0
2014-Dec-14 17:32N 39°27' W 000°19'0 0.0
2014-Dec-14 16:32N 39°27' W 000°19'0 0.0
2014-Dec-14 15:32N 39°27' W 000°19'0 0.0
2014-Dec-14 14:32N 39°27' W 000°19'0 0.0
2014-Dec-14 13:32N 39°27' W 000°19'0 0.0
2014-Dec-14 12:32N 39°27' W 000°19'0 0.0
2014-Dec-14 11:32N 39°27' W 000°19'2 2.5
2014-Dec-14 10:34N 39°25' W 000°17'1010.0
2014-Dec-14 09:33N 39°32' W 000°08'3210.1
2014-Dec-14 06:24N 39°57' E 000°18'1112.7
2014-Dec-14 05:33N 40°06' E 000°26'1312.8
2014-Dec-14 04:33N 40°16' E 000°37'1312.7
2014-Dec-14 03:33N 40°26' E 000°47'1312.7
2014-Dec-14 02:33N 40°36' E 000°57'1412.3
2014-Dec-14 01:28N 40°48' E 001°05'1412.8
2014-Dec-14 00:21N 41°01' E 001°12'4 3.8
2014-Dec-13 23:12N 41°06' E 001°13'12 1.4
2014-Dec-13 14:33N 41°05' E 001°29'1211.3
2014-Dec-13 13:29N 41°08' E 001°45'1011.3
2014-Dec-13 12:33N 41°11' E 001°58'13 9.7
2014-Dec-13 11:15N 41°20' E 002°10'1 0.4
2014-Dec-13 08:16N 41°21' E 002°10'2 0.6
2014-Dec-13 05:26N 41°20' E 002°10'4 4.9
2014-Dec-13 04:32N 41°18' E 002°15'8711.9
2014-Dec-12 21:17N 41°56' E 003°59'911.9
2014-Dec-12 20:31N 41°60' E 004°10'1212.0
2014-Dec-12 19:30N 42°06' E 004°24'1412.1
2014-Dec-12 18:22N 42°12' E 004°41'9812.5
2014-Dec-12 10:33N 42°56' E 006°39'1313.1
2014-Dec-12 09:33N 43°04' E 006°53'1313.3
2014-Dec-12 08:33N 43°12' E 007°08'1313.4
2014-Dec-12 07:33N 43°20' E 007°22'1413.5
2014-Dec-12 06:33N 43°28' E 007°37'4113.6
2014-Dec-12 03:33N 43°54' E 008°22'1313.4
2014-Dec-12 02:34N 44°03' E 008°35'1313.0
2014-Dec-12 01:33N 44°12' E 008°47'1212.2
2014-Dec-12 00:34N 44°22' E 008°57'3 2.8
2014-Dec-11 23:30N 44°24' E 008°54'0 0.0
2014-Dec-11 22:33N 44°24' E 008°54'0 0.0
2014-Dec-11 21:33N 44°24' E 008°54'0 0.0
2014-Dec-11 20:33N 44°24' E 008°54'0 0.0
2014-Dec-11 19:33N 44°24' E 008°54'0 0.0
2014-Dec-11 18:33N 44°24' E 008°54'0 0.0
2014-Dec-11 17:33N 44°24' E 008°54'0 0.0
2014-Dec-11 16:33N 44°24' E 008°54'0 0.0
2014-Dec-11 15:33N 44°24' E 008°54'0 0.0
2014-Dec-11 14:33N 44°24' E 008°54'0 0.0
2014-Dec-11 13:33N 44°24' E 008°54'0 0.0
2014-Dec-11 12:33N 44°24' E 008°54'0 0.0
2014-Dec-11 11:33N 44°24' E 008°54'0 0.0
2014-Dec-11 10:30N 44°24' E 008°54'0 0.0
2014-Dec-11 09:33N 44°24' E 008°54'0 0.0
2014-Dec-11 08:30N 44°24' E 008°54'0 0.0
2014-Dec-11 07:33N 44°24' E 008°54'3 2.8
2014-Dec-11 06:33N 44°23' E 008°57'5 4.9
2014-Dec-11 05:33N 44°19' E 009°01'2 2.1
2014-Dec-11 04:34N 44°17' E 009°03'1211.8
2014-Dec-11 03:33N 44°08' E 009°14'1414.2
2014-Dec-11 02:33N 43°58' E 009°27'1414.4
2014-Dec-11 01:33N 43°47' E 009°41'1414.2
2014-Dec-11 00:34N 43°37' E 009°54'1413.7
2014-Dec-10 23:33N 43°31' E 010°11'6 6.4
2014-Dec-10 22:33N 43°35' E 010°18'0 0.0
2014-Dec-10 21:32N 43°35' E 010°18'0 0.0
2014-Dec-10 20:32N 43°35' E 010°18'0 0.0
2014-Dec-10 19:32N 43°35' E 010°18'0 0.0
2014-Dec-10 18:32N 43°35' E 010°18'0 0.0
2014-Dec-10 17:32N 43°35' E 010°18'0 0.0
2014-Dec-10 16:32N 43°35' E 010°18'0 0.0
2014-Dec-10 15:32N 43°35' E 010°18'0 0.0
2014-Dec-10 14:32N 43°35' E 010°18'0 0.0
2014-Dec-10 13:26N 43°35' E 010°18'0 0.0
2014-Dec-10 12:32N 43°35' E 010°18'0 0.0
2014-Dec-10 11:32N 43°35' E 010°18'0 0.0
2014-Dec-10 10:32N 43°35' E 010°18'0 0.0
2014-Dec-10 09:32N 43°35' E 010°18'0 0.0
2014-Dec-10 08:32N 43°35' E 010°18'0 0.0
2014-Dec-10 07:32N 43°35' E 010°18'0 0.0
2014-Dec-10 06:32N 43°35' E 010°18'1 0.6
2014-Dec-10 05:33N 43°34' E 010°18'7 7.5
2014-Dec-10 04:33N 43°27' E 010°13'1515.4
2014-Dec-10 03:33N 43°12' E 010°09'1616.0
2014-Dec-10 02:34N 42°57' E 010°05'1714.9
2014-Dec-10 01:25N 42°40' E 010°08'1516.2
2014-Dec-10 00:30N 42°29' E 010°23'69014.5
2014-Dec-08 01:04N 36°51' E 023°23'4216.8
2014-Dec-07 22:33N 37°31' E 023°39'1616.2
2014-Dec-07 21:33N 37°47' E 023°38'1010.4
2014-Dec-07 20:33N 37°57' E 023°36'0 0.0
2014-Dec-07 19:31N 37°57' E 023°36'0 0.0
2014-Dec-07 18:31N 37°57' E 023°36'0 0.0
2014-Dec-07 17:31N 37°57' E 023°36'0 0.0
2014-Dec-07 16:31N 37°57' E 023°36'0 0.0
2014-Dec-07 15:31N 37°57' E 023°36'0 0.0
2014-Dec-07 14:28N 37°57' E 023°36'0 0.0
2014-Dec-07 13:31N 37°57' E 023°36'0 0.0
2014-Dec-07 12:31N 37°57' E 023°36'0 0.0
2014-Dec-07 11:31N 37°57' E 023°36'0 0.0
2014-Dec-07 10:31N 37°57' E 023°36'0 0.0
2014-Dec-07 09:16N 37°57' E 023°36'0 0.0
2014-Dec-07 08:31N 37°57' E 023°36'0 0.0
2014-Dec-07 07:31N 37°57' E 023°36'0 0.2
2014-Dec-07 06:33N 37°57' E 023°36'2 1.9
2014-Dec-07 05:33N 37°55' E 023°37'3 2.7
2014-Dec-07 04:33N 37°53' E 023°39'1211.5
2014-Dec-07 03:33N 37°42' E 023°45'8 8.2
2014-Dec-07 02:33N 37°36' E 023°52'0 0.1
2014-Dec-07 01:31N 37°36' E 023°51'0 0.2
2014-Dec-07 00:31N 37°36' E 023°51'0 0.3
2014-Dec-06 23:10N 37°36' E 023°51'0 0.3
2014-Dec-06 22:31N 37°36' E 023°51'0 0.2
2014-Dec-06 21:33N 37°36' E 023°50'0 0.3
2014-Dec-06 20:33N 37°36' E 023°50'0 0.1
2014-Dec-06 19:33N 37°36' E 023°50'1 0.8
2014-Dec-06 18:33N 37°36' E 023°51'9 9.1
2014-Dec-06 17:33N 37°29' E 023°58'1312.3
2014-Dec-06 16:28N 37°19' E 024°09'1112.3
2014-Dec-06 15:33N 37°10' E 024°18'1212.0
2014-Dec-06 14:33N 37°01' E 024°28'1211.8
2014-Dec-06 13:33N 36°52' E 024°37'1211.6
2014-Dec-06 12:33N 36°43' E 024°45'1212.0
2014-Dec-06 11:33N 36°33' E 024°54'1212.1
2014-Dec-06 10:33N 36°26' E 025°06'1212.1
2014-Dec-06 09:33N 36°18' E 025°18'1212.2
2014-Dec-06 08:33N 36°11' E 025°30'1212.4
2014-Dec-06 07:33N 36°03' E 025°42'1312.5
2014-Dec-06 06:33N 35°55' E 025°54'1212.4
2014-Dec-06 05:33N 35°47' E 026°06'  
Track history (hours):
 
Tides and Currents Weather Stations Pressure Air Temp Water Temp Dewpoint Dewpoint Depression Visibility Wind Speed Wind Dir Waves Ship Positions

Zim Luanda

Last reported at 2014-Dec-16 04:24 UTC. Time now 2014-Dec-22 19:53 UTC.
Position N 35°58' W 005°36'.

Length 260 m; draft 11.6 m.

Type: Ship (hazmat cat A). MMSI: 249830000.

Date/timePositionNaut miles runAvg speedWind from/ knotsBaromVisibWave heightAir tempDewpointWater temp
2014-Dec-16 04:24N 35°58' W 005°36'1113.2
2014-Dec-16 03:32N 36°01' W 005°23'24114.0
2014-Dec-15 10:16N 37°28' W 000°42'1215.1
2014-Dec-15 09:28N 37°37' W 000°31'1415.4
2014-Dec-15 08:33N 37°49' W 000°22'1614.9
2014-Dec-15 07:27N 38°02' W 000°10'8212.0
2014-Dec-15 00:33N 39°25' W 000°16'3 3.1
2014-Dec-14 23:29N 39°27' W 000°19'0 0.0
2014-Dec-14 22:32N 39°27' W 000°19'0 0.0
2014-Dec-14 21:32N 39°27' W 000°19'0 0.0
2014-Dec-14 20:32N 39°27' W 000°19'0 0.0
2014-Dec-14 19:32N 39°27' W 000°19'0 0.0
2014-Dec-14 18:32N 39°27' W 000°19'0 0.0
2014-Dec-14 17:32N 39°27' W 000°19'0 0.0
2014-Dec-14 16:32N 39°27' W 000°19'0 0.0
2014-Dec-14 15:32N 39°27' W 000°19'0 0.0
2014-Dec-14 14:32N 39°27' W 000°19'0 0.0
2014-Dec-14 13:32N 39°27' W 000°19'0 0.0
2014-Dec-14 12:32N 39°27' W 000°19'0 0.0
2014-Dec-14 11:32N 39°27' W 000°19'2 2.5
2014-Dec-14 10:34N 39°25' W 000°17'1010.0
2014-Dec-14 09:33N 39°32' W 000°08'3210.1
2014-Dec-14 06:24N 39°57' E 000°18'1112.7
2014-Dec-14 05:33N 40°06' E 000°26'1312.8
2014-Dec-14 04:33N 40°16' E 000°37'1312.7
2014-Dec-14 03:33N 40°26' E 000°47'1312.7
2014-Dec-14 02:33N 40°36' E 000°57'1412.3
2014-Dec-14 01:28N 40°48' E 001°05'1412.8
2014-Dec-14 00:21N 41°01' E 001°12'4 3.8
2014-Dec-13 23:12N 41°06' E 001°13'12 1.4
2014-Dec-13 14:33N 41°05' E 001°29'1211.3
2014-Dec-13 13:29N 41°08' E 001°45'1011.3
2014-Dec-13 12:33N 41°11' E 001°58'13 9.7
2014-Dec-13 11:15N 41°20' E 002°10'1 0.4
2014-Dec-13 08:16N 41°21' E 002°10'2 0.6
2014-Dec-13 05:26N 41°20' E 002°10'4 4.9
2014-Dec-13 04:32N 41°18' E 002°15'8711.9
2014-Dec-12 21:17N 41°56' E 003°59'911.9
2014-Dec-12 20:31N 41°60' E 004°10'1212.0
2014-Dec-12 19:30N 42°06' E 004°24'1412.1
2014-Dec-12 18:22N 42°12' E 004°41'9812.5
2014-Dec-12 10:33N 42°56' E 006°39'1313.1
2014-Dec-12 09:33N 43°04' E 006°53'1313.3
2014-Dec-12 08:33N 43°12' E 007°08'1313.4
2014-Dec-12 07:33N 43°20' E 007°22'1413.5
2014-Dec-12 06:33N 43°28' E 007°37'4113.6
2014-Dec-12 03:33N 43°54' E 008°22'1313.4
2014-Dec-12 02:34N 44°03' E 008°35'1313.0
2014-Dec-12 01:33N 44°12' E 008°47'1212.2
2014-Dec-12 00:34N 44°22' E 008°57'3 2.8
2014-Dec-11 23:30N 44°24' E 008°54'0 0.0
2014-Dec-11 22:33N 44°24' E 008°54'0 0.0
2014-Dec-11 21:33N 44°24' E 008°54'0 0.0
2014-Dec-11 20:33N 44°24' E 008°54'0 0.0
2014-Dec-11 19:33N 44°24' E 008°54'0 0.0
2014-Dec-11 18:33N 44°24' E 008°54'0 0.0
2014-Dec-11 17:33N 44°24' E 008°54'0 0.0
2014-Dec-11 16:33N 44°24' E 008°54'0 0.0
2014-Dec-11 15:33N 44°24' E 008°54'0 0.0
2014-Dec-11 14:33N 44°24' E 008°54'0 0.0
2014-Dec-11 13:33N 44°24' E 008°54'0 0.0
2014-Dec-11 12:33N 44°24' E 008°54'0 0.0
2014-Dec-11 11:33N 44°24' E 008°54'0 0.0
2014-Dec-11 10:30N 44°24' E 008°54'0 0.0
2014-Dec-11 09:33N 44°24' E 008°54'0 0.0
2014-Dec-11 08:30N 44°24' E 008°54'0 0.0
2014-Dec-11 07:33N 44°24' E 008°54'3 2.8
2014-Dec-11 06:33N 44°23' E 008°57'5 4.9
2014-Dec-11 05:33N 44°19' E 009°01'2 2.1
2014-Dec-11 04:34N 44°17' E 009°03'1211.8
2014-Dec-11 03:33N 44°08' E 009°14'1414.2
2014-Dec-11 02:33N 43°58' E 009°27'1414.4
2014-Dec-11 01:33N 43°47' E 009°41'1414.2
2014-Dec-11 00:34N 43°37' E 009°54'1413.7
2014-Dec-10 23:33N 43°31' E 010°11'6 6.4
2014-Dec-10 22:33N 43°35' E 010°18'0 0.0
2014-Dec-10 21:32N 43°35' E 010°18'0 0.0
2014-Dec-10 20:32N 43°35' E 010°18'0 0.0
2014-Dec-10 19:32N 43°35' E 010°18'0 0.0
2014-Dec-10 18:32N 43°35' E 010°18'0 0.0
2014-Dec-10 17:32N 43°35' E 010°18'0 0.0
2014-Dec-10 16:32N 43°35' E 010°18'0 0.0
2014-Dec-10 15:32N 43°35' E 010°18'0 0.0
2014-Dec-10 14:32N 43°35' E 010°18'0 0.0
2014-Dec-10 13:26N 43°35' E 010°18'0 0.0
2014-Dec-10 12:32N 43°35' E 010°18'0 0.0
2014-Dec-10 11:32N 43°35' E 010°18'0 0.0
2014-Dec-10 10:32N 43°35' E 010°18'0 0.0
2014-Dec-10 09:32N 43°35' E 010°18'0 0.0
2014-Dec-10 08:32N 43°35' E 010°18'0 0.0
2014-Dec-10 07:32N 43°35' E 010°18'0 0.0
2014-Dec-10 06:32N 43°35' E 010°18'1 0.6
2014-Dec-10 05:33N 43°34' E 010°18'7 7.5
2014-Dec-10 04:33N 43°27' E 010°13'1515.4
2014-Dec-10 03:33N 43°12' E 010°09'1616.0
2014-Dec-10 02:34N 42°57' E 010°05'1714.9
2014-Dec-10 01:25N 42°40' E 010°08'1516.2
2014-Dec-10 00:30N 42°29' E 010°23'69014.5
2014-Dec-08 01:04N 36°51' E 023°23'4216.8
2014-Dec-07 22:33N 37°31' E 023°39'1616.2
2014-Dec-07 21:33N 37°47' E 023°38'1010.4
2014-Dec-07 20:33N 37°57' E 023°36'0 0.0
2014-Dec-07 19:31N 37°57' E 023°36'0 0.0
2014-Dec-07 18:31N 37°57' E 023°36'0 0.0
2014-Dec-07 17:31N 37°57' E 023°36'0 0.0
2014-Dec-07 16:31N 37°57' E 023°36'0 0.0
2014-Dec-07 15:31N 37°57' E 023°36'0 0.0
2014-Dec-07 14:28N 37°57' E 023°36'0 0.0
2014-Dec-07 13:31N 37°57' E 023°36'0 0.0
2014-Dec-07 12:31N 37°57' E 023°36'0 0.0
2014-Dec-07 11:31N 37°57' E 023°36'0 0.0
2014-Dec-07 10:31N 37°57' E 023°36'0 0.0
2014-Dec-07 09:16N 37°57' E 023°36'0 0.0
2014-Dec-07 08:31N 37°57' E 023°36'0 0.0
2014-Dec-07 07:31N 37°57' E 023°36'0 0.2
2014-Dec-07 06:33N 37°57' E 023°36'2 1.9
2014-Dec-07 05:33N 37°55' E 023°37'3 2.7
2014-Dec-07 04:33N 37°53' E 023°39'1211.5
2014-Dec-07 03:33N 37°42' E 023°45'8 8.2
2014-Dec-07 02:33N 37°36' E 023°52'0 0.1
2014-Dec-07 01:31N 37°36' E 023°51'0 0.2
2014-Dec-07 00:31N 37°36' E 023°51'0 0.3
2014-Dec-06 23:10N 37°36' E 023°51'0 0.3
2014-Dec-06 22:31N 37°36' E 023°51'0 0.2
2014-Dec-06 21:33N 37°36' E 023°50'0 0.3
2014-Dec-06 20:33N 37°36' E 023°50'0 0.1
2014-Dec-06 19:33N 37°36' E 023°50'1 0.8
2014-Dec-06 18:33N 37°36' E 023°51'9 9.1
2014-Dec-06 17:33N 37°29' E 023°58'1312.3
2014-Dec-06 16:28N 37°19' E 024°09'1112.3
2014-Dec-06 15:33N 37°10' E 024°18'1212.0
2014-Dec-06 14:33N 37°01' E 024°28'1211.8
2014-Dec-06 13:33N 36°52' E 024°37'1211.6
2014-Dec-06 12:33N 36°43' E 024°45'1212.0
2014-Dec-06 11:33N 36°33' E 024°54'1212.1
2014-Dec-06 10:33N 36°26' E 025°06'1212.1
2014-Dec-06 09:33N 36°18' E 025°18'1212.2
2014-Dec-06 08:33N 36°11' E 025°30'1212.4
2014-Dec-06 07:33N 36°03' E 025°42'1312.5
2014-Dec-06 06:33N 35°55' E 025°54'1212.4
2014-Dec-06 05:33N 35°47' E 026°06'  

Dump ship's entire track history